createdAt,value
2018-07-28T00:01:37.935Z,13.13
2018-07-28T00:04:06.818Z,13.90
2018-07-28T00:06:35.619Z,13.62
2018-07-28T00:09:07.120Z,13.78
2018-07-28T00:11:36.188Z,14.15
2018-07-28T00:14:04.842Z,12.23
2018-07-28T00:16:33.847Z,13.93
2018-07-28T00:19:02.671Z,12.15
2018-07-28T00:21:31.566Z,14.65
2018-07-28T00:24:00.450Z,16.48
2018-07-28T00:26:29.311Z,13.50
2018-07-28T00:28:58.136Z,13.13
2018-07-28T00:31:27.037Z,15.83
2018-07-28T00:33:55.933Z,12.83
2018-07-28T00:36:24.366Z,12.17
2018-07-28T00:38:53.236Z,13.28
2018-07-28T00:41:22.081Z,13.32
2018-07-28T00:43:50.895Z,13.80
2018-07-28T00:46:19.755Z,12.70
2018-07-28T00:48:48.592Z,12.73
2018-07-28T00:51:17.403Z,12.57
2018-07-28T00:53:46.316Z,13.25
2018-07-28T00:56:15.139Z,11.90
2018-07-28T00:58:43.959Z,13.70
2018-07-28T01:01:12.824Z,13.22
2018-07-28T01:03:41.716Z,13.50
2018-07-28T01:06:10.544Z,13.83
2018-07-28T01:08:39.418Z,13.13
2018-07-28T01:11:08.256Z,13.03
2018-07-28T01:13:37.079Z,12.60
2018-07-28T01:16:05.982Z,13.93
2018-07-28T01:18:34.880Z,13.80
2018-07-28T01:21:03.706Z,11.70
2018-07-28T01:23:32.669Z,12.33
2018-07-28T01:26:01.614Z,11.83
2018-07-28T01:28:30.430Z,17.03
2018-07-28T01:30:59.299Z,13.13
2018-07-28T01:33:28.124Z,13.43
2018-07-28T01:35:56.953Z,13.23
2018-07-28T01:38:25.916Z,12.95
2018-07-28T01:40:54.727Z,15.70
2018-07-28T01:43:23.570Z,12.37
2018-07-28T01:45:52.432Z,14.80
2018-07-28T01:48:21.251Z,13.03
2018-07-28T01:50:50.069Z,13.13
2018-07-28T01:53:18.946Z,12.90
2018-07-28T01:55:47.778Z,13.37
2018-07-28T01:58:17.007Z,16.10
2018-07-28T02:00:45.911Z,14.17
2018-07-28T02:03:14.707Z,16.65
2018-07-28T02:05:43.539Z,12.90
2018-07-28T02:08:12.406Z,16.23
2018-07-28T02:10:41.238Z,14.70
2018-07-28T02:13:10.089Z,14.00
2018-07-28T02:15:39.026Z,15.50
2018-07-28T02:18:07.832Z,12.90
2018-07-28T02:20:36.737Z,14.70
2018-07-28T02:23:05.620Z,13.03
2018-07-28T02:25:34.433Z,17.10
2018-07-28T02:28:03.380Z,15.27
2018-07-28T02:30:32.292Z,14.38
2018-07-28T02:33:00.726Z,12.90
2018-07-28T02:35:29.560Z,15.10
2018-07-28T02:37:58.417Z,14.10
2018-07-28T02:40:27.248Z,13.70
2018-07-28T02:42:56.181Z,13.53
2018-07-28T02:45:25.049Z,13.30
2018-07-28T02:47:53.879Z,12.50
2018-07-28T02:50:22.695Z,13.60
2018-07-28T02:52:51.539Z,11.50
2018-07-28T02:55:20.348Z,16.40
2018-07-28T02:57:49.173Z,16.87
2018-07-28T03:00:18.128Z,13.53
2018-07-28T03:02:46.948Z,16.93
2018-07-28T03:05:15.789Z,16.50
2018-07-28T03:07:44.693Z,13.90
2018-07-28T03:10:13.503Z,13.33
2018-07-28T03:12:42.416Z,16.10
2018-07-28T03:15:27.172Z,14.03
2018-07-28T03:17:56.371Z,14.50
2018-07-28T03:20:25.208Z,13.93
2018-07-28T03:22:54.075Z,14.73
2018-07-28T03:25:22.952Z,13.73
2018-07-28T03:27:51.364Z,12.70
2018-07-28T03:30:20.393Z,14.60
2018-07-28T03:32:49.251Z,14.00
2018-07-28T03:35:18.067Z,13.97
2018-07-28T03:37:47.349Z,14.93
2018-07-28T03:40:16.175Z,13.13
2018-07-28T03:42:45.022Z,14.07
2018-07-28T03:45:13.876Z,12.63
2018-07-28T03:47:42.805Z,13.75
2018-07-28T03:50:11.879Z,14.70
2018-07-28T03:52:40.738Z,15.23
2018-07-28T03:55:10.488Z,13.67
2018-07-28T03:57:39.520Z,14.97
2018-07-28T04:00:11.388Z,10.97
2018-07-28T04:02:40.304Z,13.50
2018-07-28T04:05:10.785Z,14.27
2018-07-28T04:07:40.086Z,13.63
2018-07-28T04:10:09.795Z,11.83
2018-07-28T04:12:39.264Z,11.77
2018-07-28T04:15:10.655Z,13.10
2018-07-28T04:17:55.915Z,15.93
2018-07-28T04:20:26.051Z,15.43
2018-07-28T04:22:55.270Z,11.37
2018-07-28T04:25:24.484Z,11.78
2018-07-28T04:27:52.911Z,13.37
2018-07-28T04:30:21.959Z,12.03
2018-07-28T04:32:50.845Z,16.48
2018-07-28T04:35:19.291Z,13.28
2018-07-28T04:37:51.083Z,12.33
2018-07-28T04:40:19.928Z,13.60
2018-07-28T04:42:48.813Z,11.50
2018-07-28T04:45:17.642Z,12.82
2018-07-28T04:47:46.438Z,15.68
2018-07-28T04:50:15.355Z,14.03
2018-07-28T04:52:44.529Z,15.28
2018-07-28T04:55:13.347Z,12.82
2018-07-28T04:57:42.232Z,14.83
2018-07-28T05:00:11.048Z,12.15
2018-07-28T05:02:39.884Z,11.70
2018-07-28T05:05:08.795Z,10.98
2018-07-28T05:07:37.737Z,11.48
2018-07-28T05:10:06.451Z,13.50
2018-07-28T05:12:35.359Z,14.43
2018-07-28T05:15:04.957Z,12.50
2018-07-28T05:17:33.770Z,12.47
2018-07-28T05:20:02.635Z,13.28
2018-07-28T05:22:31.454Z,16.25
2018-07-28T05:25:00.300Z,14.43
2018-07-28T05:27:29.138Z,13.88
2018-07-28T05:29:57.974Z,16.40
2018-07-28T05:32:26.820Z,20.02
2018-07-28T05:34:55.375Z,15.90
2018-07-28T05:37:24.224Z,15.63
2018-07-28T05:39:53.042Z,20.72
2018-07-28T05:42:22.140Z,13.93
2018-07-28T05:44:51.324Z,16.02
2018-07-28T05:47:20.200Z,15.35
2018-07-28T05:49:49.051Z,14.70
2018-07-28T05:52:17.882Z,18.07
2018-07-28T05:54:46.815Z,14.13
2018-07-28T05:57:15.662Z,15.05
2018-07-28T05:59:44.572Z,14.78
2018-07-28T06:02:13.103Z,19.62
2018-07-28T06:04:41.939Z,14.65
2018-07-28T06:07:10.779Z,14.75
2018-07-28T06:09:39.606Z,14.50
2018-07-28T06:12:08.516Z,15.45
2018-07-28T06:14:37.910Z,14.30
2018-07-28T06:17:06.793Z,12.35
2018-07-28T06:19:35.646Z,15.20
2018-07-28T06:22:04.627Z,15.83
2018-07-28T06:24:33.426Z,15.40
2018-07-28T06:27:02.256Z,15.83
2018-07-28T06:29:31.137Z,16.57
2018-07-28T06:32:00.179Z,27.75
2018-07-28T06:34:29.015Z,23.12
2018-07-28T06:36:57.980Z,25.00
2018-07-28T06:39:27.051Z,29.18
2018-07-28T06:41:55.890Z,23.45
2018-07-28T06:44:24.716Z,22.77
2018-07-28T06:46:53.591Z,20.65
2018-07-28T06:49:22.531Z,17.30
2018-07-28T06:51:51.394Z,22.82
2018-07-28T06:54:20.244Z,24.10
2018-07-28T06:56:49.103Z,17.50
2018-07-28T06:59:17.938Z,19.32
2018-07-28T07:01:46.751Z,20.90
2018-07-28T07:04:15.644Z,17.12
2018-07-28T07:06:44.585Z,15.25
2018-07-28T07:09:13.428Z,20.95
2018-07-28T07:11:42.292Z,16.27
2018-07-28T07:14:11.269Z,13.53
2018-07-28T07:16:40.173Z,18.32
2018-07-28T07:19:09.100Z,20.35
2018-07-28T07:21:37.988Z,17.57
2018-07-28T07:24:06.970Z,14.70
2018-07-28T07:26:35.920Z,15.58
2018-07-28T07:29:04.787Z,15.83
2018-07-28T07:31:33.615Z,16.37
2018-07-28T07:34:02.499Z,14.07
2018-07-28T07:36:31.374Z,16.15
2018-07-28T07:39:00.272Z,15.00
2018-07-28T07:41:29.203Z,12.78
2018-07-28T07:43:58.128Z,13.03
2018-07-28T07:46:26.964Z,14.05
2018-07-28T07:48:55.850Z,14.25
2018-07-28T07:51:24.957Z,12.53
2018-07-28T07:53:53.848Z,12.85
2018-07-28T07:56:22.723Z,20.97
2018-07-28T07:58:51.575Z,21.68
2018-07-28T08:01:20.415Z,12.85
2018-07-28T08:03:49.384Z,15.20
2018-07-28T08:06:18.294Z,17.12
2018-07-28T08:08:47.215Z,12.15
2018-07-28T08:11:16.031Z,15.28
2018-07-28T08:13:44.920Z,16.85
2018-07-28T08:16:13.791Z,12.00
2018-07-28T08:18:42.641Z,15.10
2018-07-28T08:21:11.489Z,12.25
2018-07-28T08:23:40.813Z,12.78
2018-07-28T08:26:09.831Z,13.38
2018-07-28T08:28:38.988Z,16.82
2018-07-28T08:31:07.967Z,15.15
2018-07-28T08:33:36.809Z,14.58
2018-07-28T08:36:05.861Z,25.97
2018-07-28T08:38:34.784Z,15.23
2018-07-28T08:41:03.657Z,17.07
2018-07-28T08:43:32.480Z,16.90
2018-07-28T08:46:01.348Z,12.20
2018-07-28T08:48:30.211Z,14.05
2018-07-28T08:50:59.026Z,12.30
2018-07-28T08:53:27.880Z,13.43
2018-07-28T08:55:56.366Z,12.37
2018-07-28T08:58:25.265Z,12.58
2018-07-28T09:00:54.491Z,14.45
2018-07-28T09:03:23.391Z,11.63
2018-07-28T09:05:52.326Z,12.95
2018-07-28T09:08:21.274Z,11.60
2018-07-28T09:10:50.324Z,17.65
2018-07-28T09:13:19.163Z,13.58
2018-07-28T09:15:49.328Z,15.03
2018-07-28T09:18:18.225Z,18.40
2018-07-28T09:20:47.128Z,21.40
2018-07-28T09:23:17.557Z,13.58
2018-07-28T09:25:46.435Z,14.00
2018-07-28T09:28:15.485Z,18.35
2018-07-28T09:30:44.024Z,15.78
2018-07-28T09:33:12.923Z,12.80
2018-07-28T09:35:41.785Z,13.20
2018-07-28T09:38:10.632Z,14.60
2018-07-28T09:40:39.488Z,10.70
2018-07-28T09:43:08.420Z,10.82
2018-07-28T09:45:37.352Z,12.55
2018-07-28T09:48:06.400Z,10.48
2018-07-28T09:50:35.275Z,12.13
2018-07-28T09:53:04.169Z,9.93
2018-07-28T09:55:33.204Z,10.03
2018-07-28T09:58:02.023Z,10.50
2018-07-28T10:00:36.159Z,10.72
2018-07-28T10:03:04.612Z,10.65
2018-07-28T10:05:33.496Z,10.10
2018-07-28T10:08:02.315Z,9.65
2018-07-28T10:10:31.151Z,11.20
2018-07-28T10:12:59.951Z,9.43
2018-07-28T10:15:28.937Z,11.93
2018-07-28T10:17:57.768Z,10.55
2018-07-28T10:20:26.580Z,9.98
2018-07-28T10:22:55.701Z,11.38
2018-07-28T10:25:24.530Z,9.38
2018-07-28T10:27:53.356Z,11.95
2018-07-28T10:30:22.760Z,10.63
2018-07-28T10:32:51.627Z,12.55
2018-07-28T10:35:20.461Z,11.73
2018-07-28T10:37:49.372Z,13.03
2018-07-28T10:40:18.216Z,14.20
2018-07-28T10:42:47.019Z,9.88
2018-07-28T10:45:16.227Z,26.87
2018-07-28T10:47:45.136Z,34.38
2018-07-28T10:50:13.955Z,49.53
2018-07-28T10:52:42.784Z,34.80
2018-07-28T10:55:11.653Z,33.42
2018-07-28T10:57:40.489Z,23.32
2018-07-28T11:00:09.542Z,18.20
2018-07-28T11:02:38.375Z,8.98
2018-07-28T11:05:07.314Z,15.53
2018-07-28T11:07:36.134Z,13.62
2018-07-28T11:10:05.720Z,11.30
2018-07-28T11:12:34.768Z,12.13
2018-07-28T11:15:03.607Z,10.70
2018-07-28T11:17:32.422Z,10.85
2018-07-28T11:20:01.469Z,10.98
2018-07-28T11:22:32.354Z,9.58
2018-07-28T11:25:03.586Z,14.30
2018-07-28T11:27:32.535Z,9.00
2018-07-28T11:30:01.348Z,9.00
2018-07-28T11:32:41.096Z,12.40
2018-07-28T11:35:21.209Z,16.50
2018-07-28T11:38:35.472Z,11.50
2018-07-28T11:41:15.267Z,11.43
2018-07-28T11:43:55.456Z,9.93
2018-07-28T11:46:24.286Z,9.50
2018-07-28T11:48:53.092Z,12.20
2018-07-28T11:51:22.032Z,10.78
2018-07-28T11:53:50.911Z,12.23
2018-07-28T11:56:19.746Z,10.90
2018-07-28T11:58:48.639Z,11.30
2018-07-28T12:01:17.451Z,11.15
2018-07-28T12:03:46.287Z,11.88
2018-07-28T12:06:15.243Z,9.25
2018-07-28T12:08:44.063Z,10.20
2018-07-28T12:11:12.875Z,12.50
2018-07-28T12:13:41.749Z,11.22
2018-07-28T12:16:10.563Z,10.88
2018-07-28T12:18:39.422Z,11.33
2018-07-28T12:21:08.347Z,12.45
2018-07-28T12:23:37.190Z,10.85
2018-07-28T12:26:06.119Z,12.73
2018-07-28T12:28:35.022Z,12.75
2018-07-28T12:31:03.885Z,13.95
2018-07-28T12:33:33.731Z,10.50
2018-07-28T12:36:02.571Z,9.30
2018-07-28T12:38:31.482Z,8.40
2018-07-28T12:41:00.699Z,14.73
2018-07-28T12:43:29.472Z,9.68
2018-07-28T12:45:58.383Z,9.63
2018-07-28T12:48:27.223Z,12.82
2018-07-28T12:50:56.055Z,9.13
2018-07-28T12:53:24.880Z,9.83
2018-07-28T12:55:53.768Z,10.55
2018-07-28T12:58:22.608Z,13.62
2018-07-28T13:00:51.532Z,11.68
2018-07-28T13:03:20.514Z,8.48
2018-07-28T13:05:49.331Z,16.00
2018-07-28T13:08:18.187Z,12.93
2018-07-28T13:10:47.085Z,12.35
2018-07-28T13:13:16.052Z,10.18
2018-07-28T13:15:44.963Z,15.28
2018-07-28T13:18:13.776Z,12.63
2018-07-28T13:20:42.641Z,12.82
2018-07-28T13:23:11.508Z,14.83
2018-07-28T13:25:40.321Z,11.65
2018-07-28T13:28:09.127Z,16.75
2018-07-28T13:30:38.035Z,17.60
2018-07-28T13:33:06.917Z,14.28
2018-07-28T13:35:35.800Z,13.95
2018-07-28T13:38:04.704Z,12.73
2018-07-28T13:40:33.558Z,11.95
2018-07-28T13:43:02.401Z,15.23
2018-07-28T13:45:31.311Z,12.70
2018-07-28T13:48:00.128Z,11.05
2018-07-28T13:50:28.567Z,12.82
2018-07-28T13:52:57.423Z,8.65
2018-07-28T13:55:26.273Z,13.85
2018-07-28T13:57:55.093Z,16.65
2018-07-28T14:00:24.028Z,8.90
2018-07-28T14:02:52.931Z,10.18
2018-07-28T14:05:21.775Z,10.25
2018-07-28T14:07:50.658Z,13.50
2018-07-28T14:10:19.575Z,11.28
2018-07-28T14:12:48.496Z,10.95
2018-07-28T14:15:17.470Z,10.18
2018-07-28T14:17:46.525Z,8.60
2018-07-28T14:20:15.384Z,12.82
2018-07-28T14:22:44.220Z,7.35
2018-07-28T14:25:13.175Z,7.85
2018-07-28T14:27:42.156Z,9.65
2018-07-28T14:30:11.069Z,9.63
2018-07-28T14:32:40.067Z,7.12
2018-07-28T14:35:08.660Z,9.05
2018-07-28T14:37:37.638Z,10.23
2018-07-28T14:40:06.076Z,13.40
2018-07-28T14:42:35.081Z,12.10
2018-07-28T14:45:03.896Z,8.33
2018-07-28T14:47:32.737Z,9.88
2018-07-28T14:50:01.655Z,9.20
2018-07-28T14:52:30.472Z,10.03
2018-07-28T14:55:00.191Z,15.53
2018-07-28T14:57:29.266Z,7.17
2018-07-28T14:59:58.158Z,9.38
2018-07-28T15:02:26.981Z,11.50
2018-07-28T15:04:55.983Z,13.25
2018-07-28T15:07:24.962Z,13.08
2018-07-28T15:09:56.117Z,7.62
2018-07-28T15:12:26.347Z,10.05
2018-07-28T15:14:55.307Z,7.87
2018-07-28T15:17:24.157Z,8.90
2018-07-28T15:19:52.989Z,9.35
2018-07-28T15:22:21.885Z,12.20
2018-07-28T15:24:50.707Z,9.65
2018-07-28T15:27:19.536Z,9.85
2018-07-28T15:29:48.474Z,12.20
2018-07-28T15:32:17.312Z,8.28
2018-07-28T15:34:46.227Z,7.72
2018-07-28T15:37:14.749Z,8.50
2018-07-28T15:39:43.748Z,11.55
2018-07-28T15:42:13.260Z,7.22
2018-07-28T15:44:42.080Z,11.63
2018-07-28T15:47:10.954Z,10.93
2018-07-28T15:49:39.959Z,10.50
2018-07-28T15:52:08.784Z,9.63
2018-07-28T15:54:37.675Z,8.13
2018-07-28T15:57:06.627Z,8.90
2018-07-28T15:59:36.516Z,14.80
2018-07-28T16:02:05.344Z,14.95
2018-07-28T16:04:34.780Z,12.45
2018-07-28T16:07:03.667Z,17.52
2018-07-28T16:09:32.575Z,15.70
2018-07-28T16:12:01.446Z,13.20
2018-07-28T16:14:33.317Z,10.98
2018-07-28T16:17:02.190Z,15.83
2018-07-28T16:19:31.215Z,11.90
2018-07-28T16:22:00.032Z,25.97
2018-07-28T16:24:28.930Z,43.10
2018-07-28T16:26:58.171Z,39.33
2018-07-28T16:29:26.988Z,44.93
2018-07-28T16:31:58.102Z,69.95
2018-07-28T16:34:26.530Z,47.20
2018-07-28T16:36:55.512Z,54.03
2018-07-28T16:39:24.380Z,64.30
2018-07-28T16:41:53.410Z,51.98
2018-07-28T16:44:22.320Z,58.20
2018-07-28T16:46:51.522Z,47.03
2018-07-28T16:49:20.728Z,36.55
2018-07-28T16:51:50.359Z,44.83
2018-07-28T16:54:19.212Z,36.30
2018-07-28T16:56:48.056Z,42.05
2018-07-28T16:59:16.939Z,33.53
2018-07-28T17:01:45.813Z,48.65
2018-07-28T17:04:14.643Z,42.23
2018-07-28T17:06:43.738Z,48.17
2018-07-28T17:09:13.571Z,32.58
2018-07-28T17:11:43.604Z,26.02
2018-07-28T17:14:12.536Z,28.92
2018-07-28T17:16:41.275Z,31.45
2018-07-28T17:19:10.121Z,25.25
2018-07-28T17:21:39.021Z,21.70
2018-07-28T17:24:07.830Z,26.20
2018-07-28T17:26:36.670Z,24.40
2018-07-28T17:29:05.503Z,28.98
2018-07-28T17:31:34.362Z,24.92
2018-07-28T17:34:03.288Z,26.97
2018-07-28T17:36:32.116Z,19.00
2018-07-28T17:39:00.947Z,25.43
2018-07-28T17:41:30.218Z,20.45
2018-07-28T17:43:59.130Z,21.90
2018-07-28T17:46:27.967Z,19.20
2018-07-28T17:48:56.863Z,14.93
2018-07-28T17:51:25.988Z,19.75
2018-07-28T17:53:54.805Z,18.82
2018-07-28T17:56:23.655Z,20.85
2018-07-28T17:58:52.552Z,18.20
2018-07-28T18:01:21.386Z,16.67
2018-07-28T18:03:50.248Z,17.05
2018-07-28T18:06:19.075Z,16.00
2018-07-28T18:08:47.930Z,19.57
2018-07-28T18:11:16.915Z,21.80
2018-07-28T18:13:45.764Z,19.35
2018-07-28T18:16:14.688Z,19.75
2018-07-28T18:18:43.534Z,17.55
2018-07-28T18:21:12.344Z,16.02
2018-07-28T18:23:41.243Z,17.00
2018-07-28T18:26:10.067Z,16.50
2018-07-28T18:28:38.895Z,19.98
2018-07-28T18:31:07.783Z,14.20
2018-07-28T18:33:36.614Z,14.60
2018-07-28T18:36:05.499Z,13.05
2018-07-28T18:38:34.533Z,18.02
2018-07-28T18:41:03.460Z,18.30
2018-07-28T18:43:32.470Z,16.97
2018-07-28T18:46:01.417Z,11.63
2018-07-28T18:48:30.318Z,12.15
2018-07-28T18:50:59.195Z,17.00
2018-07-28T18:53:28.061Z,15.95
2018-07-28T18:55:56.952Z,15.55
2018-07-28T18:58:25.866Z,15.95
2018-07-28T19:00:54.726Z,13.45
2018-07-28T19:03:23.177Z,17.55
2018-07-28T19:05:52.156Z,11.78
2018-07-28T19:08:21.317Z,11.60
2018-07-28T19:10:51.831Z,12.80
2018-07-28T19:13:26.430Z,13.28
2018-07-28T19:15:55.646Z,15.40
2018-07-28T19:18:30.141Z,11.88
2018-07-28T19:20:59.017Z,11.65
2018-07-28T19:23:33.256Z,11.22
2018-07-28T19:26:02.127Z,15.08
2018-07-28T19:28:36.335Z,11.30
2018-07-28T19:31:05.225Z,10.15
2018-07-28T19:33:34.092Z,10.95
2018-07-28T19:36:08.236Z,12.43
2018-07-28T19:38:37.099Z,10.78
2018-07-28T19:41:05.934Z,10.53
2018-07-28T19:43:34.811Z,12.03
2018-07-28T19:46:03.709Z,10.50
2018-07-28T19:48:32.172Z,12.20
2018-07-28T19:51:01.086Z,10.43
2018-07-28T19:53:29.926Z,14.45
2018-07-28T19:55:58.761Z,11.40
2018-07-28T19:58:27.636Z,9.85
2018-07-28T20:00:56.448Z,11.70
2018-07-28T20:03:25.866Z,10.10
2018-07-28T20:05:55.312Z,12.25
2018-07-28T20:08:26.377Z,13.13
2018-07-28T20:10:55.343Z,13.78
2018-07-28T20:13:24.231Z,16.50
2018-07-28T20:15:53.327Z,15.15
2018-07-28T20:18:22.158Z,14.43
2018-07-28T20:20:51.240Z,14.38
2018-07-28T20:23:20.450Z,14.73
2018-07-28T20:25:49.271Z,19.62
2018-07-28T20:28:18.252Z,14.70
2018-07-28T20:30:47.160Z,14.25
2018-07-28T20:33:15.992Z,15.65
2018-07-28T20:35:44.803Z,18.57
2018-07-28T20:38:13.800Z,14.73
2018-07-28T20:40:42.611Z,15.18
2018-07-28T20:43:11.763Z,13.95
2018-07-28T20:45:40.663Z,14.98
2018-07-28T20:48:09.541Z,13.15
2018-07-28T20:50:39.017Z,17.42
2018-07-28T20:53:07.904Z,14.00
2018-07-28T20:55:36.734Z,14.95
2018-07-28T20:58:05.696Z,12.73
2018-07-28T21:00:34.546Z,12.05
2018-07-28T21:03:03.360Z,13.15
2018-07-28T21:05:32.187Z,13.25
2018-07-28T21:08:01.166Z,13.40
2018-07-28T21:10:30.036Z,13.05
2018-07-28T21:12:58.917Z,10.58
2018-07-28T21:15:27.784Z,10.15
2018-07-28T21:17:56.686Z,14.70
2018-07-28T21:20:25.496Z,10.15
2018-07-28T21:22:54.404Z,12.68
2018-07-28T21:25:23.309Z,11.50
2018-07-28T21:27:52.163Z,10.68
2018-07-28T21:30:21.011Z,13.10
2018-07-28T21:32:49.849Z,12.05
2018-07-28T21:35:19.594Z,11.50
2018-07-28T21:37:48.540Z,13.85
2018-07-28T21:40:17.427Z,27.45
2018-07-28T21:42:46.230Z,13.58
2018-07-28T21:45:15.089Z,13.90
2018-07-28T21:47:43.910Z,14.65
2018-07-28T21:50:12.712Z,13.98
2018-07-28T21:52:41.656Z,14.23
2018-07-28T21:55:10.489Z,13.90
2018-07-28T21:57:39.338Z,12.10
2018-07-28T22:00:12.224Z,13.55
2018-07-28T22:02:41.076Z,14.75
2018-07-28T22:05:10.034Z,12.70
2018-07-28T22:07:38.899Z,14.95
2018-07-28T22:10:07.719Z,17.32
2018-07-28T22:12:36.580Z,15.38
2018-07-28T22:15:05.889Z,14.10
2018-07-28T22:17:34.721Z,12.88
2018-07-28T22:20:03.605Z,11.90
2018-07-28T22:22:32.495Z,15.80
2018-07-28T22:25:01.304Z,11.60
2018-07-28T22:27:31.125Z,12.78
2018-07-28T22:30:00.583Z,12.13
2018-07-28T22:32:29.420Z,12.95
2018-07-28T22:34:58.241Z,11.18
2018-07-28T22:37:27.095Z,11.22
2018-07-28T22:39:55.904Z,12.82
2018-07-28T22:42:55.479Z,13.18
2018-07-28T22:45:24.368Z,11.12
2018-07-28T22:47:53.211Z,13.95
2018-07-28T22:50:22.530Z,16.52
2018-07-28T22:52:51.353Z,13.40
2018-07-28T22:55:20.828Z,18.30
2018-07-28T22:57:49.736Z,11.45
2018-07-28T23:00:19.003Z,16.87
2018-07-28T23:02:47.811Z,16.67
2018-07-28T23:05:18.115Z,14.18
2018-07-28T23:07:47.066Z,16.35
2018-07-28T23:10:15.896Z,14.20
2018-07-28T23:12:44.711Z,12.35
2018-07-28T23:15:13.586Z,12.45
2018-07-28T23:17:42.910Z,13.85
2018-07-28T23:20:11.753Z,12.33
2018-07-28T23:22:41.072Z,13.90
2018-07-28T23:25:09.887Z,12.07
2018-07-28T23:27:38.716Z,13.18
2018-07-28T23:30:09.540Z,13.98
2018-07-28T23:32:38.730Z,11.93
2018-07-28T23:35:07.932Z,10.65
2018-07-28T23:37:37.101Z,14.75
2018-07-28T23:40:06.355Z,12.43
2018-07-28T23:42:35.261Z,12.05
2018-07-28T23:45:04.178Z,12.50
2018-07-28T23:47:33.015Z,14.07
2018-07-28T23:50:01.829Z,13.40
2018-07-28T23:52:30.711Z,12.25
2018-07-28T23:54:59.527Z,15.63
2018-07-28T23:57:28.414Z,14.18
2018-07-28T23:59:57.286Z,13.53
